Latest Weather Observations for Meekatharra

IDW60801

Issued at 8:02 am WST Saturday 7 March 2015 (issued every 30 minutes, with the page automatically refreshed every 10 minutes)

About weather observations | Map of weather stations | Latest weather observations for WA | Other Formats
Station Details ID: 007045 Name: MEEKATHARRA AIRPORT Lat: -26.61 Lon: 118.54 Height: 517.0 m
Data from the previous 72 hours. | See also: Recent months at Meekatharra
Date/Time
WST
Temp
°C
App
Temp
°C
Dew
Point
Rel
Hum
%
Delta-T
°C
Wind Press
QNH
hPa
Press
MSL
hPa
Rain
since 9 am
mm
Dir
 
Spd
km/h
Gust
km/h
Spd
kts
Gust
kts
07/08:00am 17.9 18.6 17.1 95 0.5 E 9 13 5 7 1019.2 - 2.0
07/07:56am 18.0 18.7 17.0 94 0.6 E 9 11 5 6 1019.3 - 1.8
07/07:31am 18.0 20.5 17.2 95 0.5 CALM 0 0 0 0 1019.3 - 1.4
07/07:30am 18.1 20.5 17.0 93 0.7 CALM 0 0 0 0 1019.3 - 1.4
07/07:15am 18.1 20.5 17.1 94 0.6 CALM 0 0 0 0 1019.3 - 1.4
07/07:04am 18.0 20.4 17.0 94 0.6 CALM 0 0 0 0 1019.2 - 1.2
07/07:00am 18.0 20.6 17.4 96 0.4 CALM 0 0 0 0 1019.1 - 1.2
07/06:42am 18.0 19.3 17.2 95 0.5 WNW 6 7 3 4 1019.0 - 0.6
07/06:30am 18.1 19.2 17.0 93 0.7 WNW 7 9 4 5 1019.1 - 0.4
07/06:14am 18.3 19.3 16.3 88 1.2 S 6 7 3 4 1018.6 - 0.2
07/06:00am 18.2 18.6 16.4 89 1.1 SE 9 13 5 7 1017.7 1014.1 0.2
07/05:47am 18.2 18.6 16.4 89 1.1 SE 9 13 5 7 1017.4 - 0.2
07/05:30am 18.3 18.7 16.3 88 1.2 SSE 9 13 5 7 1017.3 - 0.2
07/05:00am 18.3 19.6 16.2 87 1.3 ESE 4 7 2 4 1017.1 - 0.2
07/04:54am 18.3 19.2 16.2 87 1.3 E 6 11 3 6 1016.9 - 0.2
07/04:30am 18.2 17.0 16.2 88 1.2 E 17 26 9 14 1016.2 - 0.2
07/04:00am 18.2 16.4 16.1 87 1.3 E 20 28 11 15 1015.8 - 0.2
07/03:30am 18.1 16.3 16.1 88 1.2 E 20 30 11 16 1015.9 - 0.2
07/03:00am 18.1 16.3 16.1 88 1.2 E 20 28 11 15 1015.9 1012.3 0.2
07/02:30am 18.2 16.6 15.9 86 1.4 E 19 24 10 13 1015.9 - 0.2
07/02:00am 18.2 16.0 15.9 86 1.4 E 22 30 12 16 1015.8 - 0.2
07/01:30am 18.5 16.7 16.0 85 1.5 ESE 20 30 11 16 1015.9 - 0.2
07/01:00am 18.5 16.7 16.0 85 1.5 ESE 20 28 11 15 1016.1 - 0.2
07/12:30am 18.6 17.0 16.0 85 1.6 ESE 19 26 10 14 1016.2 - 0.2
07/12:00am 18.4 17.2 16.1 86 1.4 E 17 22 9 12 1016.5 1012.8 0.2
 
Date/Time
WST
Temp
°C
App
Temp
°C
Dew
Point
Rel
Hum
%
Delta-T
°C
Wind Press
QNH
hPa
Press
MSL
hPa
Rain
since 9 am
mm
Dir
 
Spd
km/h
Gust
km/h
Spd
kts
Gust
kts
06/11:30pm 18.4 16.8 16.1 86 1.4 ESE 19 28 10 15 1016.6 - 0.2
06/11:00pm 18.6 16.4 16.0 85 1.6 ESE 22 33 12 18 1016.9 - 0.2
06/10:30pm 18.6 16.4 16.0 85 1.6 ESE 22 28 12 15 1017.0 - 0.2
06/10:00pm 18.8 16.5 15.8 83 1.8 ESE 22 33 12 18 1017.4 - 0.2
06/09:30pm 19.0 16.7 15.7 81 2.0 ESE 22 30 12 16 1017.7 - 0.2
06/09:00pm 19.3 16.9 15.5 78 2.3 ESE 22 33 12 18 1017.6 1014.0 0.2
06/08:30pm 19.7 17.1 15.0 74 2.8 ESE 22 32 12 17 1017.4 - 0.2
06/08:00pm 20.1 17.9 14.8 71 3.2 ESE 20 30 11 16 1016.9 - 0.2
06/07:30pm 20.4 18.3 15.1 71 3.2 ESE 20 28 11 15 1016.6 - 0.2
06/07:00pm 20.6 18.2 15.3 71 3.2 ESE 22 33 12 18 1015.9 - 0.2
06/06:30pm 20.9 18.0 15.1 69 3.5 ESE 24 39 13 21 1015.7 - 0.2
06/06:00pm 21.4 18.0 15.9 71 3.4 ESE 28 37 15 20 1015.7 1012.1 0.2
06/05:30pm 21.7 18.9 16.4 72 3.3 ESE 26 35 14 19 1015.5 - 0.2
06/05:00pm 22.3 19.9 16.3 69 3.7 ESE 24 33 13 18 1015.7 - 0.2
06/04:30pm 22.3 19.0 16.0 67 3.9 ESE 28 37 15 20 1015.8 - 0.2
06/04:00pm 22.3 19.3 15.8 66 4.0 ESE 26 39 14 21 1015.5 - 0.2
06/03:30pm 21.8 18.3 15.4 67 3.9 ESE 28 37 15 20 1015.6 - 0.2
06/03:00pm 21.5 18.1 15.8 70 3.5 ESE 28 39 15 21 1015.7 1012.1 0.2
06/02:30pm 21.5 17.2 15.4 68 3.7 ESE 32 41 17 22 1016.1 - 0.2
06/02:00pm 21.5 17.4 16.0 71 3.4 ESE 32 41 17 22 1016.5 - 0.2
06/01:30pm 21.1 17.2 15.5 70 3.4 ESE 30 39 16 21 1017.2 - 0.2
06/01:00pm 20.9 17.5 15.8 72 3.1 ESE 28 37 15 20 1017.7 - 0.2
06/12:30pm 20.3 16.3 15.3 73 3.0 ESE 30 41 16 22 1018.0 - 0.2
06/12:00pm 19.8 15.8 15.3 75 2.7 E 30 41 16 22 1018.4 1014.7 0.0
06/11:30am 19.6 15.7 15.5 77 2.5 E 30 41 16 22 1018.5 - 0.0
06/11:00am 18.9 15.2 15.1 78 2.3 ESE 28 39 15 21 1018.5 - 0.0
06/10:30am 18.5 14.4 15.0 80 2.1 ESE 30 41 16 22 1018.9 - 0.0
06/10:00am 18.8 14.3 14.8 77 2.4 ESE 32 44 17 24 1019.1 - 0.0
06/09:30am 18.8 15.6 15.3 80 2.1 ESE 26 37 14 20 1018.9 - 0.0
06/09:00am 17.8 13.3 14.8 82 1.8 ESE 32 39 17 21 1019.3 1015.7 9.2
06/08:30am 17.7 13.7 15.2 85 1.5 ESE 30 41 16 22 1019.1 - 9.2
06/08:00am 17.4 14.2 15.2 87 1.3 ESE 26 41 14 22 1019.1 - 9.2
06/07:30am 17.2 14.4 15.4 89 1.1 ESE 24 33 13 18 1019.2 - 9.2
06/07:00am 16.5 13.6 15.1 91 0.8 SE 24 39 13 21 1019.1 - 9.2
06/06:30am 16.2 13.5 15.5 96 0.4 SE 24 35 13 19 1018.9 - 9.2
06/06:14am 16.2 13.8 15.5 96 0.4 SE 22 37 12 20 1018.8 - 9.2
06/06:00am 16.1 12.6 15.4 96 0.4 SE 28 39 15 21 1018.6 1014.9 9.2
06/05:53am 16.1 12.9 15.4 96 0.4 ESE 26 37 14 20 1018.5 - 8.6
06/05:39am 16.2 13.8 15.5 96 0.4 ESE 22 32 12 17 1018.9 - 8.4
06/05:30am 16.2 13.5 15.7 97 0.3 ESE 24 35 13 19 1018.7 - 8.4
06/05:15am 16.3 13.7 15.8 97 0.3 ESE 24 35 13 19 1018.9 - 6.4
06/05:05am 16.3 14.0 15.8 97 0.3 ESE 22 30 12 16 1019.1 - 5.8
06/05:00am 16.4 14.4 15.6 95 0.5 ESE 20 30 11 16 1019.1 - 5.6
06/04:53am 16.3 14.7 16.0 98 0.2 ESE 19 28 10 15 1019.0 - 5.6
06/04:36am 16.3 14.6 15.8 97 0.3 ESE 19 24 10 13 1019.2 - 5.4
06/04:30am 16.4 15.1 15.7 96 0.4 ESE 17 22 9 12 1019.4 - 5.2
06/04:16am 16.3 15.3 15.6 96 0.4 SE 15 20 8 11 1019.5 - 4.6
06/04:00am 16.4 14.6 15.6 95 0.5 SE 19 32 10 17 1018.6 - 3.8
06/03:30am 16.3 14.3 15.6 96 0.4 SSE 20 28 11 15 1018.5 - 3.6
06/03:02am 16.4 15.1 15.7 96 0.4 SSE 17 20 9 11 1019.0 - 3.4
06/03:00am 16.4 15.1 15.7 96 0.4 SSE 17 22 9 12 1018.9 1015.3 3.4
06/02:40am 16.7 16.8 15.4 92 0.8 SE 9 13 5 7 1019.1 - 2.6
06/02:30am 16.9 15.7 15.0 88 1.1 SE 15 24 8 13 1018.9 - 2.0
06/02:08am 16.8 15.7 15.3 91 0.9 SSE 15 20 8 11 1018.8 - 2.0
06/02:00am 17.0 15.6 15.5 91 0.9 S 17 20 9 11 1018.9 - 2.0
06/01:52am 17.2 16.5 15.5 90 1.0 SSE 13 17 7 9 1018.8 - 1.8
06/01:30am 17.9 16.0 14.3 79 2.1 ESE 17 26 9 14 1018.7 - 1.4
06/01:00am 18.1 16.4 14.7 80 2.0 ESE 17 26 9 14 1018.4 - 1.4
06/12:30am 18.2 15.5 14.5 79 2.2 E 22 30 12 16 1018.8 - 1.4
06/12:00am 18.0 14.9 14.6 80 2.0 ESE 24 35 13 19 1018.7 1015.1 1.4
 
Date/Time
WST
Temp
°C
App
Temp
°C
Dew
Point
Rel
Hum
%
Delta-T
°C
Wind Press
QNH
hPa
Press
MSL
hPa
Rain
since 9 am
mm
Dir
 
Spd
km/h
Gust
km/h
Spd
kts
Gust
kts
05/11:30pm 18.1 15.8 14.7 80 2.0 ESE 20 28 11 15 1019.3 - 1.4
05/11:00pm 18.3 15.6 14.6 79 2.2 ESE 22 32 12 17 1019.5 - 1.4
05/10:30pm 18.6 16.4 14.5 77 2.4 SE 19 30 10 16 1019.7 - 1.4
05/10:00pm 18.6 15.5 14.5 77 2.4 ESE 24 35 13 19 1019.9 - 1.4
05/09:30pm 18.9 15.8 14.5 75 2.6 ESE 24 33 13 18 1020.5 - 1.4
05/09:00pm 18.7 16.5 15.0 79 2.2 ESE 20 30 11 16 1020.7 1017.1 1.4
05/08:30pm 18.8 16.7 15.1 79 2.2 ESE 20 33 11 18 1020.3 - 1.4
05/08:00pm 18.6 16.2 15.3 81 2.0 SE 22 32 12 17 1019.9 - 1.4
05/07:30pm 18.6 16.2 15.4 81 1.9 SE 22 32 12 17 1019.4 - 1.4
05/07:00pm 18.9 16.0 15.2 79 2.2 SE 24 35 13 19 1019.4 - 1.4
05/06:30pm 18.8 16.8 15.5 81 2.0 SE 20 30 11 16 1019.1 - 1.4
05/06:00pm 18.8 16.3 15.1 79 2.2 SE 22 33 12 18 1018.8 1015.2 1.4
05/05:30pm 19.0 15.4 15.3 79 2.2 SE 28 39 15 21 1018.4 - 1.4
05/05:00pm 19.6 16.4 16.2 81 2.1 SE 28 43 15 23 1017.9 - 1.4
05/04:30pm 19.8 16.5 16.0 79 2.3 SSE 28 39 15 21 1017.8 - 1.2
05/04:00pm 19.8 17.3 16.2 80 2.2 SSE 24 32 13 17 1017.8 - 1.2
05/03:30pm 19.9 17.5 16.5 81 2.1 SSE 24 33 13 18 1017.8 - 1.2
05/03:00pm 20.6 17.9 16.7 78 2.4 SE 26 35 14 19 1017.8 1014.2 1.2
05/02:30pm 20.5 17.2 16.1 76 2.7 SE 28 35 15 19 1017.9 - 1.2
05/02:00pm 20.1 17.3 17.2 83 1.8 SSE 28 35 15 19 1017.9 - 1.2
05/01:30pm 20.5 17.2 16.1 76 2.7 ESE 28 35 15 19 1018.8 - 0.2
05/01:00pm 20.9 18.4 16.2 74 2.9 SE 24 39 13 21 1018.6 - 0.0
05/12:30pm 20.5 17.1 15.9 75 2.8 ESE 28 41 15 22 1018.8 - 0.0
05/12:00pm 20.0 16.2 15.7 76 2.6 ESE 30 41 16 22 1019.3 1015.7 0.0
05/11:30am 19.1 15.1 15.3 78 2.3 ESE 30 43 16 23 1019.7 - 0.0
05/11:00am 17.9 15.9 15.4 85 1.5 SE 20 33 11 18 1020.2 - 0.0
05/10:30am 17.7 14.6 15.7 88 1.2 ESE 26 41 14 22 1020.6 - 0.0
05/10:00am 18.1 14.7 15.9 87 1.3 ESE 28 39 15 21 1020.6 - 0.0
05/09:30am 18.1 16.3 16.1 88 1.2 ESE 20 28 11 15 1021.0 - 0.0
05/09:00am 17.7 16.2 16.4 92 0.8 ESE 19 24 10 13 1021.0 1017.4 16.6
05/08:30am 17.1 16.0 16.4 96 0.4 ESE 17 26 9 14 1020.7 - 16.4
05/08:00am 17.1 15.6 16.3 95 0.5 ESE 19 26 10 14 1020.8 - 14.8
05/07:30am 17.1 13.5 16.3 95 0.5 E 30 39 16 21 1020.2 - 11.0
05/07:00am 17.4 14.2 16.4 94 0.6 E 28 44 15 24 1019.9 - 7.0
05/06:30am 17.4 15.4 16.4 94 0.6 E 22 32 12 17 1019.8 - 4.8
05/06:15am 17.4 15.0 16.4 94 0.6 E 24 33 13 18 1019.7 - 4.0
05/06:00am 17.6 15.3 16.6 94 0.6 E 24 35 13 19 1019.6 1016.0 3.4
05/05:30am 17.7 15.8 16.6 93 0.7 E 22 35 12 19 1019.4 - 3.2
05/05:00am 17.7 16.1 16.6 93 0.7 ENE 20 28 11 15 1019.2 - 2.8
05/04:30am 17.7 16.4 16.7 94 0.6 ENE 19 24 10 13 1019.0 - 1.8
05/04:00am 17.8 16.1 16.3 91 0.9 E 20 24 11 13 1018.6 - 1.4
05/03:30am 17.8 16.1 16.3 91 0.9 E 20 28 11 15 1018.6 - 1.4
05/03:12am 17.9 15.9 16.4 91 0.9 ENE 22 33 12 18 1018.8 - 1.4
05/03:00am 17.9 16.4 16.8 93 0.7 ENE 20 30 11 16 1018.9 1015.3 1.4
05/02:30am 17.9 16.5 17.1 95 0.5 E 20 28 11 15 1019.1 - 1.0
05/02:08am 18.1 16.5 16.6 91 0.9 E 20 32 11 17 1018.9 - 0.6
05/02:00am 18.1 16.5 16.6 91 0.9 E 20 33 11 18 1018.9 - 0.6
05/01:47am 18.1 15.7 16.5 90 1.0 E 24 33 13 18 1018.8 - 0.6
05/01:30am 18.2 15.9 16.6 90 1.0 E 24 32 13 17 1018.8 - 0.6
05/01:00am 18.3 15.6 16.7 90 1.0 E 26 35 14 19 1018.9 - 0.6
05/12:30am 18.9 16.3 16.8 87 1.3 E 26 37 14 20 1019.0 - 0.6
05/12:00am 18.8 16.6 17.0 89 1.1 E 24 37 13 20 1019.0 1015.4 0.6
 
Date/Time
WST
Temp
°C
App
Temp
°C
Dew
Point
Rel
Hum
%
Delta-T
°C
Wind Press
QNH
hPa
Press
MSL
hPa
Rain
since 9 am
mm
Dir
 
Spd
km/h
Gust
km/h
Spd
kts
Gust
kts
04/11:30pm 19.1 17.4 17.3 89 1.1 E 22 32 12 17 1019.2 - 0.6
04/11:00pm 19.2 18.0 17.4 89 1.1 ESE 20 28 11 15 1019.5 - 0.6
04/10:30pm 19.1 17.1 17.5 90 1.0 ESE 24 33 13 18 1019.3 - 0.6
04/10:11pm 19.2 16.4 17.3 89 1.2 ESE 28 39 15 21 1019.4 - 0.6
04/10:00pm 19.3 16.1 17.2 88 1.3 E 30 41 16 22 1019.6 - 0.6
04/09:30pm 19.4 16.5 17.0 86 1.5 ESE 28 43 15 23 1019.8 - 0.6
04/09:21pm 19.4 16.5 17.1 86 1.4 ESE 28 41 15 22 1019.8 - 0.6
04/09:00pm 19.5 17.5 17.4 88 1.3 ESE 24 33 13 18 1019.7 1016.1 0.6
04/08:30pm 19.7 17.0 17.5 87 1.4 ESE 28 39 15 21 1019.6 - 0.6
04/08:00pm 20.1 18.7 17.9 87 1.4 ESE 22 30 12 16 1018.9 - 0.6
04/07:30pm 20.2 18.5 18.1 88 1.3 ESE 24 35 13 19 1018.8 - 0.6
04/07:00pm 20.8 18.8 18.3 85 1.6 ESE 26 41 14 22 1018.3 - 0.6
04/06:57pm 20.9 18.9 18.2 84 1.7 ESE 26 41 14 22 1018.2 - 0.6
04/06:30pm 21.2 18.3 18.0 82 2.0 ESE 30 39 16 21 1018.4 - 0.6
04/06:00pm 21.7 20.0 18.1 80 2.3 E 24 33 13 18 1018.6 1014.9 0.6
04/05:30pm 21.9 19.5 18.3 80 2.3 E 28 41 15 22 1018.3 - 0.6
04/05:00pm 22.2 20.6 18.3 78 2.5 E 24 32 13 17 1017.8 - 0.6
04/04:30pm 22.3 20.9 18.7 80 2.3 ESE 24 30 13 16 1017.8 - 0.6
04/04:00pm 22.6 20.7 18.5 77 2.6 ESE 26 37 14 20 1017.5 - 0.6
04/03:30pm 22.9 21.9 18.9 78 2.6 ESE 22 35 12 19 1017.2 - 0.6
04/03:00pm 23.3 21.4 18.5 74 3.1 ESE 26 39 14 21 1017.2 1013.6 0.6
04/02:30pm 23.7 21.8 18.6 73 3.3 ESE 26 39 14 21 1017.2 - 0.6
04/02:00pm 23.8 22.1 18.9 74 3.2 E 26 39 14 21 1017.4 - 0.6
04/01:30pm 24.1 22.9 19.3 74 3.1 ESE 24 33 13 18 1017.4 - 0.6
04/01:00pm 22.7 21.9 18.5 77 2.7 ESE 20 32 11 17 1018.0 - 0.4
04/12:30pm 22.4 21.0 18.7 79 2.4 E 24 32 13 17 1018.4 - 0.4
04/12:00pm 21.9 20.4 18.5 81 2.2 E 24 33 13 18 1018.6 1014.9 0.4
04/11:30am 21.1 19.9 18.3 84 1.8 E 22 32 12 17 1018.6 - 0.4
04/11:00am 21.1 19.3 18.8 87 1.5 E 26 37 14 20 1019.0 - 0.4
04/10:30am 20.1 18.5 18.4 90 1.1 E 24 32 13 17 1019.3 - 0.4
04/10:00am 19.4 18.9 18.6 95 0.5 E 19 28 10 15 1019.3 - 0.2
04/09:30am 18.8 17.8 18.0 95 0.5 E 20 26 11 14 1018.9 - 0.2
04/09:00am 18.2 17.0 17.6 96 0.4 E 20 28 11 15 1018.9 1015.3 3.4
04/08:30am 18.1 16.9 17.5 96 0.4 E 20 30 11 16 1019.3 - 3.2

Other Formats:

Comma delimited format used in spreadsheet applications
http://www.bom.gov.au/fwo/IDW60801/IDW60801.94430.axf

JavaScript Object Notation format (JSON) in row-major order
http://www.bom.gov.au/fwo/IDW60801/IDW60801.94430.json